sensor_id;sensor_type;location;lat;lon;timestamp;P1;durP1;ratioP1;P2;durP2;ratioP2
12302;SDS011;6214;48.012;7.862;2023-07-29T00:01:57;4.70;;;0.95;;
12302;SDS011;6214;48.012;7.862;2023-07-29T00:04:24;5.00;;;1.00;;
12302;SDS011;6214;48.012;7.862;2023-07-29T00:06:51;5.90;;;1.00;;
12302;SDS011;6214;48.012;7.862;2023-07-29T00:09:18;4.20;;;1.10;;
12302;SDS011;6214;48.012;7.862;2023-07-29T00:11:45;5.20;;;1.00;;
12302;SDS011;6214;48.012;7.862;2023-07-29T00:14:12;7.80;;;1.20;;
12302;SDS011;6214;48.012;7.862;2023-07-29T00:16:39;4.80;;;1.00;;
12302;SDS011;6214;48.012;7.862;2023-07-29T00:19:06;5.80;;;1.00;;
12302;SDS011;6214;48.012;7.862;2023-07-29T00:21:33;4.70;;;0.90;;
12302;SDS011;6214;48.012;7.862;2023-07-29T00:24:00;4.90;;;1.20;;
12302;SDS011;6214;48.012;7.862;2023-07-29T00:26:27;4.32;;;1.00;;
12302;SDS011;6214;48.012;7.862;2023-07-29T00:28:58;5.70;;;1.10;;
12302;SDS011;6214;48.012;7.862;2023-07-29T00:31:25;4.97;;;0.90;;
12302;SDS011;6214;48.012;7.862;2023-07-29T00:33:52;4.00;;;0.80;;
12302;SDS011;6214;48.012;7.862;2023-07-29T00:36:20;5.30;;;0.90;;
12302;SDS011;6214;48.012;7.862;2023-07-29T00:38:47;5.10;;;1.00;;
12302;SDS011;6214;48.012;7.862;2023-07-29T00:41:14;4.13;;;0.90;;
12302;SDS011;6214;48.012;7.862;2023-07-29T00:43:41;4.10;;;0.90;;
12302;SDS011;6214;48.012;7.862;2023-07-29T00:46:08;4.70;;;0.90;;
12302;SDS011;6214;48.012;7.862;2023-07-29T00:48:36;4.80;;;1.10;;
12302;SDS011;6214;48.012;7.862;2023-07-29T00:51:04;6.10;;;1.00;;
12302;SDS011;6214;48.012;7.862;2023-07-29T00:53:32;4.50;;;1.20;;
12302;SDS011;6214;48.012;7.862;2023-07-29T00:55:59;4.45;;;1.00;;
12302;SDS011;6214;48.012;7.862;2023-07-29T00:58:26;4.30;;;1.10;;
12302;SDS011;6214;48.012;7.862;2023-07-29T01:00:54;6.43;;;1.20;;
12302;SDS011;6214;48.012;7.862;2023-07-29T01:03:21;4.43;;;1.30;;
12302;SDS011;6214;48.012;7.862;2023-07-29T01:08:53;5.70;;;1.20;;
12302;SDS011;6214;48.012;7.862;2023-07-29T01:13:54;4.32;;;1.00;;
12302;SDS011;6214;48.012;7.862;2023-07-29T01:16:30;5.85;;;1.10;;
12302;SDS011;6214;48.012;7.862;2023-07-29T01:19:12;4.95;;;1.20;;
12302;SDS011;6214;48.012;7.862;2023-07-29T01:21:58;4.57;;;1.13;;
12302;SDS011;6214;48.012;7.862;2023-07-29T01:24:25;5.53;;;1.10;;
12302;SDS011;6214;48.012;7.862;2023-07-29T01:26:52;4.60;;;1.20;;
12302;SDS011;6214;48.012;7.862;2023-07-29T01:29:19;4.40;;;1.08;;
12302;SDS011;6214;48.012;7.862;2023-07-29T01:31:46;4.97;;;1.10;;
12302;SDS011;6214;48.012;7.862;2023-07-29T01:34:32;4.47;;;1.00;;
12302;SDS011;6214;48.012;7.862;2023-07-29T01:37:05;4.20;;;1.10;;
12302;SDS011;6214;48.012;7.862;2023-07-29T01:39:35;5.60;;;1.20;;
12302;SDS011;6214;48.012;7.862;2023-07-29T01:42:04;4.32;;;0.95;;
12302;SDS011;6214;48.012;7.862;2023-07-29T01:44:32;4.47;;;1.02;;
12302;SDS011;6214;48.012;7.862;2023-07-29T01:46:59;5.85;;;1.20;;
12302;SDS011;6214;48.012;7.862;2023-07-29T01:49:26;4.35;;;1.10;;
12302;SDS011;6214;48.012;7.862;2023-07-29T01:51:53;4.70;;;1.10;;
12302;SDS011;6214;48.012;7.862;2023-07-29T01:54:20;4.60;;;0.90;;
12302;SDS011;6214;48.012;7.862;2023-07-29T01:56:47;5.20;;;1.30;;
12302;SDS011;6214;48.012;7.862;2023-07-29T01:59:14;4.45;;;1.08;;
12302;SDS011;6214;48.012;7.862;2023-07-29T02:01:42;4.53;;;0.98;;
12302;SDS011;6214;48.012;7.862;2023-07-29T02:04:10;4.37;;;1.07;;
12302;SDS011;6214;48.012;7.862;2023-07-29T02:06:37;4.90;;;1.00;;
12302;SDS011;6214;48.012;7.862;2023-07-29T02:09:04;4.40;;;0.98;;
12302;SDS011;6214;48.012;7.862;2023-07-29T02:11:31;4.30;;;1.07;;
12302;SDS011;6214;48.012;7.862;2023-07-29T02:13:58;4.07;;;1.00;;
12302;SDS011;6214;48.012;7.862;2023-07-29T02:16:25;4.27;;;1.00;;
12302;SDS011;6214;48.012;7.862;2023-07-29T02:18:52;4.47;;;0.90;;
12302;SDS011;6214;48.012;7.862;2023-07-29T02:21:22;4.80;;;0.93;;
12302;SDS011;6214;48.012;7.862;2023-07-29T02:23:48;4.28;;;1.00;;
12302;SDS011;6214;48.012;7.862;2023-07-29T02:26:16;4.20;;;1.10;;
12302;SDS011;6214;48.012;7.862;2023-07-29T02:28:44;4.47;;;1.00;;
12302;SDS011;6214;48.012;7.862;2023-07-29T02:31:24;4.90;;;1.10;;
12302;SDS011;6214;48.012;7.862;2023-07-29T02:33:51;4.10;;;0.90;;
12302;SDS011;6214;48.012;7.862;2023-07-29T02:36:18;4.10;;;1.00;;
12302;SDS011;6214;48.012;7.862;2023-07-29T02:38:46;5.00;;;1.10;;
12302;SDS011;6214;48.012;7.862;2023-07-29T02:41:13;5.50;;;1.10;;
12302;SDS011;6214;48.012;7.862;2023-07-29T02:43:42;4.60;;;0.90;;
12302;SDS011;6214;48.012;7.862;2023-07-29T02:46:09;4.80;;;1.00;;
12302;SDS011;6214;48.012;7.862;2023-07-29T02:48:36;4.10;;;1.10;;
12302;SDS011;6214;48.012;7.862;2023-07-29T02:51:03;4.70;;;1.00;;
12302;SDS011;6214;48.012;7.862;2023-07-29T02:53:30;4.80;;;1.40;;
12302;SDS011;6214;48.012;7.862;2023-07-29T02:55:57;4.80;;;1.50;;
12302;SDS011;6214;48.012;7.862;2023-07-29T02:58:24;4.65;;;1.67;;
12302;SDS011;6214;48.012;7.862;2023-07-29T03:00:52;5.72;;;1.38;;
12302;SDS011;6214;48.012;7.862;2023-07-29T03:03:19;4.40;;;1.20;;
12302;SDS011;6214;48.012;7.862;2023-07-29T03:05:47;4.20;;;1.20;;
12302;SDS011;6214;48.012;7.862;2023-07-29T03:08:14;4.50;;;1.30;;
12302;SDS011;6214;48.012;7.862;2023-07-29T03:10:41;5.88;;;1.25;;
12302;SDS011;6214;48.012;7.862;2023-07-29T03:13:08;5.97;;;1.20;;
12302;SDS011;6214;48.012;7.862;2023-07-29T03:15:35;4.55;;;1.30;;
12302;SDS011;6214;48.012;7.862;2023-07-29T03:18:02;5.80;;;1.20;;
12302;SDS011;6214;48.012;7.862;2023-07-29T03:20:30;4.50;;;1.20;;
12302;SDS011;6214;48.012;7.862;2023-07-29T03:22:57;4.90;;;1.30;;
12302;SDS011;6214;48.012;7.862;2023-07-29T03:25:24;5.00;;;1.42;;
12302;SDS011;6214;48.012;7.862;2023-07-29T03:27:51;5.03;;;1.35;;
12302;SDS011;6214;48.012;7.862;2023-07-29T03:30:21;4.32;;;1.30;;
12302;SDS011;6214;48.012;7.862;2023-07-29T03:32:48;4.57;;;1.50;;
12302;SDS011;6214;48.012;7.862;2023-07-29T03:35:16;5.00;;;1.33;;
12302;SDS011;6214;48.012;7.862;2023-07-29T03:37:43;5.30;;;1.10;;
12302;SDS011;6214;48.012;7.862;2023-07-29T03:40:10;5.10;;;1.38;;
12302;SDS011;6214;48.012;7.862;2023-07-29T03:42:37;4.32;;;1.20;;
12302;SDS011;6214;48.012;7.862;2023-07-29T03:45:04;4.70;;;1.10;;
12302;SDS011;6214;48.012;7.862;2023-07-29T03:47:32;5.10;;;1.10;;
12302;SDS011;6214;48.012;7.862;2023-07-29T03:49:59;4.40;;;1.30;;
12302;SDS011;6214;48.012;7.862;2023-07-29T03:52:26;4.90;;;1.20;;
12302;SDS011;6214;48.012;7.862;2023-07-29T03:54:53;6.05;;;1.33;;
12302;SDS011;6214;48.012;7.862;2023-07-29T03:57:20;5.80;;;1.30;;
12302;SDS011;6214;48.012;7.862;2023-07-29T03:59:47;4.17;;;1.13;;
12302;SDS011;6214;48.012;7.862;2023-07-29T04:02:14;6.75;;;1.30;;
12302;SDS011;6214;48.012;7.862;2023-07-29T04:04:41;4.20;;;1.10;;
12302;SDS011;6214;48.012;7.862;2023-07-29T04:07:10;6.18;;;1.20;;
12302;SDS011;6214;48.012;7.862;2023-07-29T04:09:37;4.40;;;1.30;;
12302;SDS011;6214;48.012;7.862;2023-07-29T04:12:04;4.20;;;1.10;;
12302;SDS011;6214;48.012;7.862;2023-07-29T04:14:32;5.70;;;1.40;;
12302;SDS011;6214;48.012;7.862;2023-07-29T04:16:59;4.40;;;1.20;;
12302;SDS011;6214;48.012;7.862;2023-07-29T04:19:25;4.60;;;1.27;;
12302;SDS011;6214;48.012;7.862;2023-07-29T04:21:53;4.80;;;1.30;;
12302;SDS011;6214;48.012;7.862;2023-07-29T04:24:20;4.10;;;1.10;;
12302;SDS011;6214;48.012;7.862;2023-07-29T04:26:49;4.70;;;1.50;;
12302;SDS011;6214;48.012;7.862;2023-07-29T04:29:16;4.70;;;1.30;;
12302;SDS011;6214;48.012;7.862;2023-07-29T04:31:43;4.60;;;1.20;;
12302;SDS011;6214;48.012;7.862;2023-07-29T04:34:10;4.55;;;1.42;;
12302;SDS011;6214;48.012;7.862;2023-07-29T04:36:37;4.80;;;1.20;;
12302;SDS011;6214;48.012;7.862;2023-07-29T04:39:05;4.47;;;1.30;;
12302;SDS011;6214;48.012;7.862;2023-07-29T04:41:32;5.30;;;1.23;;
12302;SDS011;6214;48.012;7.862;2023-07-29T04:43:59;5.10;;;1.52;;
12302;SDS011;6214;48.012;7.862;2023-07-29T04:46:26;4.70;;;1.30;;
12302;SDS011;6214;48.012;7.862;2023-07-29T04:48:52;5.00;;;1.17;;
12302;SDS011;6214;48.012;7.862;2023-07-29T04:51:21;4.60;;;1.20;;
12302;SDS011;6214;48.012;7.862;2023-07-29T04:53:48;4.50;;;1.40;;
12302;SDS011;6214;48.012;7.862;2023-07-29T04:56:15;4.55;;;1.20;;
12302;SDS011;6214;48.012;7.862;2023-07-29T04:58:44;4.60;;;1.30;;
12302;SDS011;6214;48.012;7.862;2023-07-29T05:01:11;4.70;;;1.40;;
12302;SDS011;6214;48.012;7.862;2023-07-29T05:03:38;4.60;;;1.40;;
12302;SDS011;6214;48.012;7.862;2023-07-29T05:06:06;4.78;;;1.40;;
12302;SDS011;6214;48.012;7.862;2023-07-29T05:08:33;4.50;;;1.17;;
12302;SDS011;6214;48.012;7.862;2023-07-29T05:11:01;4.23;;;1.30;;
12302;SDS011;6214;48.012;7.862;2023-07-29T05:13:27;4.95;;;1.40;;
12302;SDS011;6214;48.012;7.862;2023-07-29T05:15:55;5.07;;;1.30;;
12302;SDS011;6214;48.012;7.862;2023-07-29T05:18:22;4.72;;;1.30;;
12302;SDS011;6214;48.012;7.862;2023-07-29T05:20:49;5.53;;;1.20;;
12302;SDS011;6214;48.012;7.862;2023-07-29T05:23:16;5.17;;;1.60;;
12302;SDS011;6214;48.012;7.862;2023-07-29T05:25:43;4.93;;;1.30;;
12302;SDS011;6214;48.012;7.862;2023-07-29T05:28:10;4.50;;;1.35;;
12302;SDS011;6214;48.012;7.862;2023-07-29T05:30:38;4.20;;;1.20;;
12302;SDS011;6214;48.012;7.862;2023-07-29T05:33:06;4.70;;;1.40;;
12302;SDS011;6214;48.012;7.862;2023-07-29T05:35:36;5.45;;;1.20;;
12302;SDS011;6214;48.012;7.862;2023-07-29T05:38:03;5.65;;;1.50;;
12302;SDS011;6214;48.012;7.862;2023-07-29T05:40:32;5.13;;;1.40;;
12302;SDS011;6214;48.012;7.862;2023-07-29T05:42:59;4.82;;;1.60;;
12302;SDS011;6214;48.012;7.862;2023-07-29T05:45:26;4.33;;;1.20;;
12302;SDS011;6214;48.012;7.862;2023-07-29T05:47:53;4.50;;;1.50;;
12302;SDS011;6214;48.012;7.862;2023-07-29T05:50:20;4.50;;;1.50;;
12302;SDS011;6214;48.012;7.862;2023-07-29T05:52:47;4.70;;;1.40;;
12302;SDS011;6214;48.012;7.862;2023-07-29T05:55:14;5.68;;;1.55;;
12302;SDS011;6214;48.012;7.862;2023-07-29T05:57:41;5.00;;;1.40;;
12302;SDS011;6214;48.012;7.862;2023-07-29T06:00:10;4.60;;;1.40;;
12302;SDS011;6214;48.012;7.862;2023-07-29T06:02:37;4.53;;;1.55;;
12302;SDS011;6214;48.012;7.862;2023-07-29T06:05:04;4.60;;;1.42;;
12302;SDS011;6214;48.012;7.862;2023-07-29T06:07:31;4.65;;;1.40;;
12302;SDS011;6214;48.012;7.862;2023-07-29T06:10:00;4.50;;;1.33;;
12302;SDS011;6214;48.012;7.862;2023-07-29T06:12:27;4.50;;;1.40;;
12302;SDS011;6214;48.012;7.862;2023-07-29T06:14:54;5.05;;;1.63;;
12302;SDS011;6214;48.012;7.862;2023-07-29T06:17:21;5.00;;;1.48;;
12302;SDS011;6214;48.012;7.862;2023-07-29T06:19:48;5.60;;;1.40;;
12302;SDS011;6214;48.012;7.862;2023-07-29T06:22:15;5.47;;;1.80;;
12302;SDS011;6214;48.012;7.862;2023-07-29T06:24:42;4.80;;;1.70;;
12302;SDS011;6214;48.012;7.862;2023-07-29T06:27:09;5.00;;;1.52;;
12302;SDS011;6214;48.012;7.862;2023-07-29T06:29:36;5.60;;;1.50;;
12302;SDS011;6214;48.012;7.862;2023-07-29T06:32:03;4.63;;;1.50;;
12302;SDS011;6214;48.012;7.862;2023-07-29T06:34:30;4.43;;;1.40;;
12302;SDS011;6214;48.012;7.862;2023-07-29T06:36:57;4.68;;;1.67;;
12302;SDS011;6214;48.012;7.862;2023-07-29T06:39:24;4.80;;;1.50;;
12302;SDS011;6214;48.012;7.862;2023-07-29T06:41:51;4.78;;;1.50;;
12302;SDS011;6214;48.012;7.862;2023-07-29T06:44:18;5.07;;;1.65;;
12302;SDS011;6214;48.012;7.862;2023-07-29T06:46:45;6.80;;;2.03;;
12302;SDS011;6214;48.012;7.862;2023-07-29T06:49:13;7.60;;;2.08;;
12302;SDS011;6214;48.012;7.862;2023-07-29T06:51:40;6.57;;;1.70;;
12302;SDS011;6214;48.012;7.862;2023-07-29T06:54:07;5.80;;;1.70;;
12302;SDS011;6214;48.012;7.862;2023-07-29T06:56:34;5.30;;;1.70;;
12302;SDS011;6214;48.012;7.862;2023-07-29T06:59:01;5.00;;;1.70;;
12302;SDS011;6214;48.012;7.862;2023-07-29T07:01:28;4.50;;;1.50;;
12302;SDS011;6214;48.012;7.862;2023-07-29T07:03:55;5.60;;;1.60;;
12302;SDS011;6214;48.012;7.862;2023-07-29T07:06:25;4.97;;;1.70;;
12302;SDS011;6214;48.012;7.862;2023-07-29T07:08:52;5.20;;;1.60;;
12302;SDS011;6214;48.012;7.862;2023-07-29T07:11:19;5.20;;;1.70;;
12302;SDS011;6214;48.012;7.862;2023-07-29T07:13:46;5.10;;;1.70;;
12302;SDS011;6214;48.012;7.862;2023-07-29T07:16:13;4.47;;;1.42;;
12302;SDS011;6214;48.012;7.862;2023-07-29T07:18:40;4.88;;;1.88;;
12302;SDS011;6214;48.012;7.862;2023-07-29T07:21:07;4.90;;;1.60;;
12302;SDS011;6214;48.012;7.862;2023-07-29T07:23:34;4.50;;;1.38;;
12302;SDS011;6214;48.012;7.862;2023-07-29T07:26:01;4.40;;;1.40;;
12302;SDS011;6214;48.012;7.862;2023-07-29T07:28:29;4.72;;;1.70;;
12302;SDS011;6214;48.012;7.862;2023-07-29T07:30:56;4.50;;;1.60;;
12302;SDS011;6214;48.012;7.862;2023-07-29T07:33:23;5.18;;;1.60;;
12302;SDS011;6214;48.012;7.862;2023-07-29T07:35:50;4.80;;;1.60;;
12302;SDS011;6214;48.012;7.862;2023-07-29T07:38:17;4.67;;;1.80;;
12302;SDS011;6214;48.012;7.862;2023-07-29T07:40:52;5.20;;;1.63;;
12302;SDS011;6214;48.012;7.862;2023-07-29T07:43:22;5.00;;;1.52;;
12302;SDS011;6214;48.012;7.862;2023-07-29T07:45:50;5.00;;;1.70;;
12302;SDS011;6214;48.012;7.862;2023-07-29T07:48:23;4.40;;;1.50;;
12302;SDS011;6214;48.012;7.862;2023-07-29T07:50:50;4.90;;;1.70;;
12302;SDS011;6214;48.012;7.862;2023-07-29T07:53:17;5.25;;;1.60;;
12302;SDS011;6214;48.012;7.862;2023-07-29T07:55:46;4.47;;;1.52;;
12302;SDS011;6214;48.012;7.862;2023-07-29T07:58:13;5.45;;;1.80;;
12302;SDS011;6214;48.012;7.862;2023-07-29T08:00:40;4.80;;;1.70;;
12302;SDS011;6214;48.012;7.862;2023-07-29T08:03:07;5.30;;;1.60;;
12302;SDS011;6214;48.012;7.862;2023-07-29T08:05:34;5.10;;;1.60;;
12302;SDS011;6214;48.012;7.862;2023-07-29T08:08:01;6.60;;;1.80;;
12302;SDS011;6214;48.012;7.862;2023-07-29T08:10:28;6.70;;;1.80;;
12302;SDS011;6214;48.012;7.862;2023-07-29T08:12:55;4.82;;;1.50;;
12302;SDS011;6214;48.012;7.862;2023-07-29T08:15:22;5.00;;;1.80;;
12302;SDS011;6214;48.012;7.862;2023-07-29T08:17:49;4.95;;;1.70;;
12302;SDS011;6214;48.012;7.862;2023-07-29T08:20:16;5.78;;;1.80;;
12302;SDS011;6214;48.012;7.862;2023-07-29T08:22:43;4.78;;;1.80;;
12302;SDS011;6214;48.012;7.862;2023-07-29T08:25:10;5.00;;;1.73;;
12302;SDS011;6214;48.012;7.862;2023-07-29T08:27:38;5.72;;;1.75;;
12302;SDS011;6214;48.012;7.862;2023-07-29T08:30:05;5.77;;;1.90;;
12302;SDS011;6214;48.012;7.862;2023-07-29T08:32:32;5.70;;;1.90;;
12302;SDS011;6214;48.012;7.862;2023-07-29T08:34:59;4.70;;;1.60;;
12302;SDS011;6214;48.012;7.862;2023-07-29T08:37:27;5.00;;;1.90;;
12302;SDS011;6214;48.012;7.862;2023-07-29T08:39:54;4.90;;;1.77;;
12302;SDS011;6214;48.012;7.862;2023-07-29T08:42:21;4.90;;;1.60;;
12302;SDS011;6214;48.012;7.862;2023-07-29T08:44:53;5.10;;;1.80;;
12302;SDS011;6214;48.012;7.862;2023-07-29T08:47:22;5.40;;;2.30;;
12302;SDS011;6214;48.012;7.862;2023-07-29T08:49:49;5.35;;;1.80;;
12302;SDS011;6214;48.012;7.862;2023-07-29T08:52:18;5.30;;;1.90;;
12302;SDS011;6214;48.012;7.862;2023-07-29T08:54:46;4.90;;;1.80;;
12302;SDS011;6214;48.012;7.862;2023-07-29T08:57:13;6.30;;;1.90;;
12302;SDS011;6214;48.012;7.862;2023-07-29T08:59:41;4.95;;;1.90;;
12302;SDS011;6214;48.012;7.862;2023-07-29T09:02:08;5.10;;;1.75;;
12302;SDS011;6214;48.012;7.862;2023-07-29T09:04:35;5.13;;;1.80;;
12302;SDS011;6214;48.012;7.862;2023-07-29T09:07:02;5.40;;;1.80;;
12302;SDS011;6214;48.012;7.862;2023-07-29T09:09:31;6.78;;;1.90;;
12302;SDS011;6214;48.012;7.862;2023-07-29T09:11:58;5.05;;;1.70;;
12302;SDS011;6214;48.012;7.862;2023-07-29T09:14:25;4.82;;;1.70;;
12302;SDS011;6214;48.012;7.862;2023-07-29T09:16:54;7.03;;;1.92;;
12302;SDS011;6214;48.012;7.862;2023-07-29T09:19:22;5.07;;;1.95;;
12302;SDS011;6214;48.012;7.862;2023-07-29T09:21:53;4.60;;;1.70;;
12302;SDS011;6214;48.012;7.862;2023-07-29T09:24:20;5.00;;;2.03;;
12302;SDS011;6214;48.012;7.862;2023-07-29T09:26:50;9.20;;;2.40;;
12302;SDS011;6214;48.012;7.862;2023-07-29T09:29:23;4.80;;;1.90;;
12302;SDS011;6214;48.012;7.862;2023-07-29T09:31:53;5.10;;;1.90;;
12302;SDS011;6214;48.012;7.862;2023-07-29T09:34:22;4.88;;;1.60;;
12302;SDS011;6214;48.012;7.862;2023-07-29T09:36:50;4.70;;;1.80;;
12302;SDS011;6214;48.012;7.862;2023-07-29T09:39:17;5.15;;;2.05;;
12302;SDS011;6214;48.012;7.862;2023-07-29T09:41:47;4.95;;;1.80;;
12302;SDS011;6214;48.012;7.862;2023-07-29T09:44:15;5.30;;;1.98;;
12302;SDS011;6214;48.012;7.862;2023-07-29T09:46:45;5.60;;;2.20;;
12302;SDS011;6214;48.012;7.862;2023-07-29T09:49:13;4.80;;;2.00;;
12302;SDS011;6214;48.012;7.862;2023-07-29T09:51:40;5.50;;;2.17;;
12302;SDS011;6214;48.012;7.862;2023-07-29T09:54:07;5.43;;;2.20;;
12302;SDS011;6214;48.012;7.862;2023-07-29T09:56:39;4.90;;;2.17;;
12302;SDS011;6214;48.012;7.862;2023-07-29T09:59:11;5.70;;;2.20;;
12302;SDS011;6214;48.012;7.862;2023-07-29T10:01:39;5.10;;;2.03;;
12302;SDS011;6214;48.012;7.862;2023-07-29T10:04:06;5.78;;;2.30;;
12302;SDS011;6214;48.012;7.862;2023-07-29T10:06:38;5.60;;;2.30;;
12302;SDS011;6214;48.012;7.862;2023-07-29T10:09:07;5.00;;;2.10;;
12302;SDS011;6214;48.012;7.862;2023-07-29T10:11:35;5.10;;;2.10;;
12302;SDS011;6214;48.012;7.862;2023-07-29T10:14:03;7.00;;;2.10;;
12302;SDS011;6214;48.012;7.862;2023-07-29T10:16:37;5.20;;;2.00;;
12302;SDS011;6214;48.012;7.862;2023-07-29T10:19:08;6.45;;;2.28;;
12302;SDS011;6214;48.012;7.862;2023-07-29T10:21:37;5.10;;;2.20;;
12302;SDS011;6214;48.012;7.862;2023-07-29T10:24:06;5.63;;;2.20;;
12302;SDS011;6214;48.012;7.862;2023-07-29T10:26:41;5.70;;;2.33;;
12302;SDS011;6214;48.012;7.862;2023-07-29T10:29:10;6.10;;;1.88;;
12302;SDS011;6214;48.012;7.862;2023-07-29T10:31:40;5.05;;;2.20;;
12302;SDS011;6214;48.012;7.862;2023-07-29T10:34:09;5.10;;;1.90;;
12302;SDS011;6214;48.012;7.862;2023-07-29T10:36:38;4.90;;;2.00;;
12302;SDS011;6214;48.012;7.862;2023-07-29T10:39:07;5.10;;;2.00;;
12302;SDS011;6214;48.012;7.862;2023-07-29T10:50:16;5.40;;;2.00;;
12302;SDS011;6214;48.012;7.862;2023-07-29T10:52:48;4.90;;;1.90;;
12302;SDS011;6214;48.012;7.862;2023-07-29T10:55:32;5.00;;;1.90;;
12302;SDS011;6214;48.012;7.862;2023-07-29T10:58:14;6.00;;;2.00;;
12302;SDS011;6214;48.012;7.862;2023-07-29T11:00:44;5.20;;;2.00;;
12302;SDS011;6214;48.012;7.862;2023-07-29T11:03:12;5.35;;;2.00;;
12302;SDS011;6214;48.012;7.862;2023-07-29T11:05:44;5.05;;;1.90;;
12302;SDS011;6214;48.012;7.862;2023-07-29T11:11:08;5.30;;;1.75;;
12302;SDS011;6214;48.012;7.862;2023-07-29T11:13:38;5.00;;;1.75;;
12302;SDS011;6214;48.012;7.862;2023-07-29T11:16:05;4.70;;;1.73;;
12302;SDS011;6214;48.012;7.862;2023-07-29T11:18:36;4.80;;;1.77;;
12302;SDS011;6214;48.012;7.862;2023-07-29T11:21:03;5.10;;;1.90;;
12302;SDS011;6214;48.012;7.862;2023-07-29T11:23:35;4.93;;;1.60;;
12302;SDS011;6214;48.012;7.862;2023-07-29T11:26:03;4.90;;;1.90;;
12302;SDS011;6214;48.012;7.862;2023-07-29T11:28:37;4.90;;;1.90;;
12302;SDS011;6214;48.012;7.862;2023-07-29T11:31:05;4.50;;;1.52;;
12302;SDS011;6214;48.012;7.862;2023-07-29T11:33:33;4.65;;;1.55;;
12302;SDS011;6214;48.012;7.862;2023-07-29T11:36:00;4.90;;;1.80;;
12302;SDS011;6214;48.012;7.862;2023-07-29T11:38:27;5.20;;;1.92;;
12302;SDS011;6214;48.012;7.862;2023-07-29T11:40:58;4.83;;;1.70;;
12302;SDS011;6214;48.012;7.862;2023-07-29T11:43:29;4.80;;;1.90;;
12302;SDS011;6214;48.012;7.862;2023-07-29T11:45:56;4.93;;;1.80;;
12302;SDS011;6214;48.012;7.862;2023-07-29T11:48:27;4.82;;;1.67;;
12302;SDS011;6214;48.012;7.862;2023-07-29T11:50:57;4.60;;;1.80;;
12302;SDS011;6214;48.012;7.862;2023-07-29T11:53:26;4.80;;;1.50;;
12302;SDS011;6214;48.012;7.862;2023-07-29T11:55:55;4.90;;;1.80;;
12302;SDS011;6214;48.012;7.862;2023-07-29T11:58:23;4.90;;;1.80;;
12302;SDS011;6214;48.012;7.862;2023-07-29T12:00:50;4.90;;;1.70;;
12302;SDS011;6214;48.012;7.862;2023-07-29T12:03:18;5.28;;;1.80;;
12302;SDS011;6214;48.012;7.862;2023-07-29T12:05:46;5.05;;;1.80;;
12302;SDS011;6214;48.012;7.862;2023-07-29T12:08:15;4.80;;;1.60;;
12302;SDS011;6214;48.012;7.862;2023-07-29T12:10:42;4.90;;;1.70;;
12302;SDS011;6214;48.012;7.862;2023-07-29T12:13:10;4.57;;;1.60;;
12302;SDS011;6214;48.012;7.862;2023-07-29T12:15:41;4.68;;;1.70;;
12302;SDS011;6214;48.012;7.862;2023-07-29T12:18:08;4.82;;;1.80;;
12302;SDS011;6214;48.012;7.862;2023-07-29T12:20:36;6.00;;;1.90;;
12302;SDS011;6214;48.012;7.862;2023-07-29T12:23:03;4.70;;;1.60;;
12302;SDS011;6214;48.012;7.862;2023-07-29T12:25:32;4.70;;;1.60;;
12302;SDS011;6214;48.012;7.862;2023-07-29T12:28:06;4.85;;;1.60;;
12302;SDS011;6214;48.012;7.862;2023-07-29T12:30:33;4.60;;;1.50;;
12302;SDS011;6214;48.012;7.862;2023-07-29T12:33:01;5.00;;;1.65;;
12302;SDS011;6214;48.012;7.862;2023-07-29T12:35:37;5.00;;;1.70;;
12302;SDS011;6214;48.012;7.862;2023-07-29T12:38:05;4.80;;;1.80;;
12302;SDS011;6214;48.012;7.862;2023-07-29T12:40:32;5.20;;;1.70;;
12302;SDS011;6214;48.012;7.862;2023-07-29T12:42:59;4.75;;;1.67;;
12302;SDS011;6214;48.012;7.862;2023-07-29T12:45:26;4.82;;;1.70;;
12302;SDS011;6214;48.012;7.862;2023-07-29T12:47:53;4.70;;;1.60;;
12302;SDS011;6214;48.012;7.862;2023-07-29T12:50:21;4.93;;;1.67;;
12302;SDS011;6214;48.012;7.862;2023-07-29T12:52:48;5.03;;;1.80;;
12302;SDS011;6214;48.012;7.862;2023-07-29T12:55:15;5.05;;;1.88;;
12302;SDS011;6214;48.012;7.862;2023-07-29T12:57:46;4.60;;;1.63;;
12302;SDS011;6214;48.012;7.862;2023-07-29T13:00:13;4.90;;;1.88;;
12302;SDS011;6214;48.012;7.862;2023-07-29T13:02:40;5.38;;;1.90;;
12302;SDS011;6214;48.012;7.862;2023-07-29T13:05:09;4.90;;;1.70;;
12302;SDS011;6214;48.012;7.862;2023-07-29T13:07:41;4.97;;;1.83;;
12302;SDS011;6214;48.012;7.862;2023-07-29T13:10:09;4.90;;;1.70;;
12302;SDS011;6214;48.012;7.862;2023-07-29T13:12:37;4.80;;;1.80;;
12302;SDS011;6214;48.012;7.862;2023-07-29T13:15:05;4.90;;;1.70;;
12302;SDS011;6214;48.012;7.862;2023-07-29T13:17:33;4.75;;;1.60;;
12302;SDS011;6214;48.012;7.862;2023-07-29T13:20:01;4.70;;;1.70;;
12302;SDS011;6214;48.012;7.862;2023-07-29T13:22:28;4.85;;;1.50;;
12302;SDS011;6214;48.012;7.862;2023-07-29T13:24:55;4.70;;;1.60;;
12302;SDS011;6214;48.012;7.862;2023-07-29T13:27:22;4.70;;;1.60;;
12302;SDS011;6214;48.012;7.862;2023-07-29T13:29:50;5.07;;;1.83;;
12302;SDS011;6214;48.012;7.862;2023-07-29T13:32:17;5.20;;;1.75;;
12302;SDS011;6214;48.012;7.862;2023-07-29T13:34:44;5.07;;;1.80;;
12302;SDS011;6214;48.012;7.862;2023-07-29T13:37:11;5.13;;;1.90;;
12302;SDS011;6214;48.012;7.862;2023-07-29T13:39:38;4.70;;;1.60;;
12302;SDS011;6214;48.012;7.862;2023-07-29T13:42:05;4.97;;;1.80;;
12302;SDS011;6214;48.012;7.862;2023-07-29T13:44:32;5.28;;;2.00;;
12302;SDS011;6214;48.012;7.862;2023-07-29T13:46:59;5.20;;;1.80;;
12302;SDS011;6214;48.012;7.862;2023-07-29T13:49:26;5.35;;;2.10;;
12302;SDS011;6214;48.012;7.862;2023-07-29T13:51:53;4.80;;;1.60;;
12302;SDS011;6214;48.012;7.862;2023-07-29T13:54:20;4.60;;;1.60;;
12302;SDS011;6214;48.012;7.862;2023-07-29T13:56:48;4.90;;;1.90;;
12302;SDS011;6214;48.012;7.862;2023-07-29T13:59:15;4.90;;;1.80;;
12302;SDS011;6214;48.012;7.862;2023-07-29T14:01:42;5.05;;;1.40;;
12302;SDS011;6214;48.012;7.862;2023-07-29T14:04:09;5.10;;;1.90;;
12302;SDS011;6214;48.012;7.862;2023-07-29T14:06:36;4.73;;;1.73;;
12302;SDS011;6214;48.012;7.862;2023-07-29T14:09:11;4.97;;;1.70;;
12302;SDS011;6214;48.012;7.862;2023-07-29T14:11:38;5.00;;;1.80;;
12302;SDS011;6214;48.012;7.862;2023-07-29T14:14:06;5.18;;;1.70;;
12302;SDS011;6214;48.012;7.862;2023-07-29T14:16:34;5.60;;;2.00;;
12302;SDS011;6214;48.012;7.862;2023-07-29T14:19:02;4.72;;;1.70;;
12302;SDS011;6214;48.012;7.862;2023-07-29T14:21:29;5.00;;;2.13;;
12302;SDS011;6214;48.012;7.862;2023-07-29T14:23:56;5.20;;;1.70;;
12302;SDS011;6214;48.012;7.862;2023-07-29T14:26:23;5.03;;;1.90;;
12302;SDS011;6214;48.012;7.862;2023-07-29T14:28:51;4.80;;;1.70;;
12302;SDS011;6214;48.012;7.862;2023-07-29T14:31:18;5.20;;;2.00;;
12302;SDS011;6214;48.012;7.862;2023-07-29T14:33:45;5.47;;;2.00;;
12302;SDS011;6214;48.012;7.862;2023-07-29T14:36:12;5.40;;;2.00;;
12302;SDS011;6214;48.012;7.862;2023-07-29T14:38:39;5.65;;;1.90;;
12302;SDS011;6214;48.012;7.862;2023-07-29T14:41:06;4.90;;;1.70;;
12302;SDS011;6214;48.012;7.862;2023-07-29T14:43:33;5.15;;;1.85;;
12302;SDS011;6214;48.012;7.862;2023-07-29T14:46:01;5.10;;;1.90;;
12302;SDS011;6214;48.012;7.862;2023-07-29T14:48:29;6.10;;;2.20;;
12302;SDS011;6214;48.012;7.862;2023-07-29T14:50:56;5.70;;;2.30;;
12302;SDS011;6214;48.012;7.862;2023-07-29T14:53:23;5.38;;;2.20;;
12302;SDS011;6214;48.012;7.862;2023-07-29T14:55:50;6.10;;;2.33;;
12302;SDS011;6214;48.012;7.862;2023-07-29T14:58:17;5.65;;;2.50;;
12302;SDS011;6214;48.012;7.862;2023-07-29T15:00:44;5.85;;;2.47;;
12302;SDS011;6214;48.012;7.862;2023-07-29T15:03:11;5.82;;;2.22;;
12302;SDS011;6214;48.012;7.862;2023-07-29T15:05:39;5.90;;;2.10;;
12302;SDS011;6214;48.012;7.862;2023-07-29T15:08:07;5.15;;;2.10;;
12302;SDS011;6214;48.012;7.862;2023-07-29T15:10:34;5.60;;;2.30;;
12302;SDS011;6214;48.012;7.862;2023-07-29T15:13:01;5.20;;;2.00;;
12302;SDS011;6214;48.012;7.862;2023-07-29T15:15:29;5.90;;;2.58;;
12302;SDS011;6214;48.012;7.862;2023-07-29T15:17:56;5.30;;;2.20;;
12302;SDS011;6214;48.012;7.862;2023-07-29T15:20:24;5.65;;;2.28;;
12302;SDS011;6214;48.012;7.862;2023-07-29T15:22:51;5.60;;;2.50;;